Time;durP1;ratioP1;P1;durP2;ratioP2;P2;SDS_P1;SDS_P2;PMS_P1;PMS_P2;Temp;Humidity;BMP_temperature;BMP_pressure;BME280_temperature;BME280_humidity;BME280_pressure;Samples;Min_cycle;Max_cycle;Signal;HPM_P1;HPM_P2
2020/12/03 00:00:28;;;;;;;104.85;39.05;;;;;;;-3.08;100.00;95564.84;1040420;28;20017;-72
2020/12/03 00:01:02;;;;;;;103.72;38.20;;;;;;;-3.05;100.00;95560.28;1036207;28;20268;-71
2020/12/03 00:01:33;;;;;;;106.35;40.60;;;;;;;-3.09;100.00;95564.00;1040296;28;20253;-70
2020/12/03 00:02:04;;;;;;;116.07;40.75;;;;;;;-3.13;100.00;95566.91;1032219;28;20646;-71
2020/12/03 00:02:35;;;;;;;109.00;40.90;;;;;;;-3.07;100.00;95566.50;1036144;28;20607;-72
2020/12/03 00:03:18;;;;;;;114.55;40.78;;;;;;;-3.09;100.00;95568.38;1035999;28;20328;-71
2020/12/03 00:03:51;;;;;;;112.47;39.13;;;;;;;-3.13;100.00;95570.31;1028205;28;20043;-70
2020/12/03 00:04:22;;;;;;;111.32;39.45;;;;;;;-3.09;100.00;95574.38;1036216;28;20233;-72
2020/12/03 00:04:53;;;;;;;126.47;42.92;;;;;;;-3.07;100.00;95576.88;1035952;28;20256;-71
2020/12/03 00:05:24;;;;;;;116.93;40.30;;;;;;;-3.01;100.00;95568.69;1032133;28;20022;-71
2020/12/03 00:06:07;;;;;;;114.50;42.20;;;;;;;-3.11;100.00;95567.63;1032223;28;20025;-71
2020/12/03 00:06:41;;;;;;;106.88;38.28;;;;;;;-3.15;100.00;95567.00;1036113;28;20021;-72
2020/12/03 00:07:13;;;;;;;113.47;40.05;;;;;;;-3.08;100.00;95570.84;1036098;28;20257;-71
2020/12/03 00:07:44;;;;;;;115.18;40.35;;;;;;;-3.14;100.00;95575.63;1036154;28;20291;-71
2020/12/03 00:08:15;;;;;;;119.60;41.03;;;;;;;-3.26;100.00;95569.47;1036110;28;20249;-70
2020/12/03 00:08:55;;;;;;;117.55;41.78;;;;;;;-3.18;100.00;95563.78;1031933;28;20265;-70
2020/12/03 00:09:26;;;;;;;105.90;38.22;;;;;;;-3.18;100.00;95579.38;1036254;28;20391;-71
2020/12/03 00:09:57;;;;;;;106.65;40.15;;;;;;;-3.13;100.00;95572.09;1036043;28;20256;-71
2020/12/03 00:10:28;;;;;;;118.55;40.08;;;;;;;-3.16;100.00;95569.69;1036236;28;20079;-72
2020/12/03 00:11:00;;;;;;;110.30;40.95;;;;;;;-3.16;100.00;95572.31;1035879;28;20017;-71
2020/12/03 00:11:34;;;;;;;121.30;41.80;;;;;;;-3.24;100.00;95565.84;1027827;28;20030;-71
2020/12/03 00:12:05;;;;;;;108.82;38.80;;;;;;;-3.13;100.00;95579.91;1032228;28;20722;-72
2020/12/03 00:12:36;;;;;;;111.50;37.88;;;;;;;-3.11;100.00;95571.06;1027927;28;20254;-71
2020/12/03 00:13:17;;;;;;;84.40;31.70;;;;;;;-3.05;100.00;95559.41;1036043;28;20006;-71
2020/12/03 00:13:48;;;;;;;76.82;28.08;;;;;;;-3.09;100.00;95568.38;1036257;28;20077;-71
2020/12/03 00:14:19;;;;;;;81.38;29.33;;;;;;;-3.09;100.00;95563.16;1040207;28;20248;-71
2020/12/03 00:14:50;;;;;;;80.20;30.40;;;;;;;-3.05;100.00;95564.63;1031925;28;20253;-71
2020/12/03 00:15:21;;;;;;;82.05;31.58;;;;;;;-3.02;100.00;95561.81;1036142;28;20249;-71
2020/12/03 00:15:54;;;;;;;83.90;32.97;;;;;;;-2.99;100.00;95571.19;1035934;28;20052;-71
2020/12/03 00:16:29;;;;;;;76.03;29.25;;;;;;;-3.10;100.00;95551.09;1032085;28;20277;-71
2020/12/03 00:16:59;;;;;;;74.80;28.67;;;;;;;-3.16;100.00;95535.94;1048282;28;20317;-72
2020/12/03 00:17:30;;;;;;;69.07;27.70;;;;;;;-3.06;100.00;95569.00;1040222;28;20256;-70
2020/12/03 00:18:01;;;;;;;58.22;23.67;;;;;;;-3.10;100.00;95553.69;1044267;28;20017;-71
2020/12/03 00:18:33;;;;;;;55.67;21.70;;;;;;;-3.06;100.00;95568.16;1044222;28;20025;-73
2020/12/03 00:19:05;;;;;;;58.53;21.52;;;;;;;-3.10;100.00;95559.75;1035995;28;20026;-71
2020/12/03 00:19:36;;;;;;;57.65;22.02;;;;;;;-3.08;100.00;95557.88;1036145;28;20288;-71
2020/12/03 00:20:16;;;;;;;60.38;21.83;;;;;;;-3.06;100.00;95558.59;1036023;28;20260;-71
2020/12/03 00:20:47;;;;;;;59.40;22.55;;;;;;;-3.06;100.00;95558.59;1035921;28;20268;-71
2020/12/03 00:21:37;;;;;;;52.47;21.17;;;;;;;-3.23;100.00;95559.72;1044326;28;20310;-70
2020/12/03 00:22:09;;;;;;;56.95;21.63;;;;;;;-3.13;100.00;95564.31;1032163;28;20073;-70
2020/12/03 00:22:40;;;;;;;53.85;22.02;;;;;;;-3.07;100.00;95561.28;1027956;28;20265;-71
2020/12/03 00:23:11;;;;;;;61.17;21.60;;;;;;;-3.08;100.00;95554.44;1032103;28;20292;-72
2020/12/03 00:23:42;;;;;;;51.67;20.00;;;;;;;-3.12;100.00;95555.56;1036072;28;20018;-72
2020/12/03 00:24:16;;;;;;;55.88;20.33;;;;;;;-3.19;100.00;95551.72;1032130;28;20101;-71
2020/12/03 00:24:47;;;;;;;47.88;19.25;;;;;;;-3.07;100.00;95556.91;1040055;28;20248;-71
2020/12/03 00:25:18;;;;;;;52.17;20.88;;;;;;;-3.15;100.00;95558.38;1036022;28;20261;-71
2020/12/03 00:25:50;;;;;;;51.28;20.30;;;;;;;-3.13;100.00;95561.72;1032138;28;20545;-72
2020/12/03 00:26:21;;;;;;;48.60;19.65;;;;;;;-3.13;100.00;95572.94;1040201;28;20252;-71
2020/12/03 00:26:51;;;;;;;48.75;18.63;;;;;;;-3.09;100.00;95573.56;1040030;28;20816;-70
2020/12/03 00:27:22;;;;;;;47.20;19.95;;;;;;;-3.16;100.00;95554.13;1024038;28;20035;-70
2020/12/03 00:27:55;;;;;;;51.40;20.02;;;;;;;-3.19;100.00;95556.91;1035993;28;20022;-72
2020/12/03 00:28:37;;;;;;;52.92;21.77;;;;;;;-3.15;100.00;95567.00;1048286;28;20126;-72
2020/12/03 00:29:08;;;;;;;48.47;19.00;;;;;;;-3.12;100.00;95568.56;1040102;28;20633;-71
2020/12/03 00:29:39;;;;;;;51.45;19.33;;;;;;;-3.18;100.00;95563.78;1036114;28;20280;-71
2020/12/03 00:30:09;;;;;;;49.00;17.75;;;;;;;-3.19;100.00;95572.50;1036159;28;20552;-72
2020/12/03 00:30:40;;;;;;;51.47;19.02;;;;;;;-3.29;100.00;95554.09;1032016;28;20592;-71
2020/12/03 00:31:11;;;;;;;47.00;19.52;;;;;;;-3.14;100.00;95567.84;1036392;28;20449;-70
2020/12/03 00:31:43;;;;;;;48.80;19.85;;;;;;;-3.13;100.00;95567.72;1033840;28;20026;-71
2020/12/03 00:32:13;;;;;;;50.35;21.50;;;;;;;-3.25;100.00;95551.19;1037047;28;20026;-70
2020/12/03 00:32:45;;;;;;;50.90;19.55;;;;;;;-3.18;100.00;95559.41;1039999;28;20248;-71
2020/12/03 00:33:17;;;;;;;54.90;21.50;;;;;;;-3.13;100.00;95575.53;1036038;28;20041;-71
2020/12/03 00:33:49;;;;;;;46.60;19.02;;;;;;;-3.10;100.00;95577.94;1036029;28;20245;-72
2020/12/03 00:34:20;;;;;;;50.55;20.85;;;;;;;-3.08;100.00;95573.47;1031910;28;20258;-72
2020/12/03 00:34:51;;;;;;;47.42;18.77;;;;;;;-3.07;100.00;95579.47;1031819;28;20082;-72
2020/12/03 00:35:22;;;;;;;46.92;19.27;;;;;;;-3.04;100.00;95581.88;1040187;28;20109;-73
2020/12/03 00:35:53;;;;;;;44.17;18.67;;;;;;;-3.05;100.00;95580.19;1044174;28;20412;-73
2020/12/03 00:36:24;;;;;;;45.25;19.15;;;;;;;-3.25;100.00;95550.38;1028030;28;20266;-72
2020/12/03 00:36:55;;;;;;;50.63;19.23;;;;;;;-3.01;100.00;95579.06;1035942;28;20026;-73
2020/12/03 00:37:26;;;;;;;42.17;15.52;;;;;;;-3.08;100.00;95586.44;1036127;28;20532;-73
2020/12/03 00:37:56;;;;;;;39.03;16.40;;;;;;;-3.05;100.00;95585.38;1040136;28;20501;-71
2020/12/03 00:38:27;;;;;;;42.63;17.90;;;;;;;-3.09;100.00;95589.97;1040087;28;20047;-75
2020/12/03 00:38:58;;;;;;;44.10;17.45;;;;;;;-3.07;100.00;95584.66;1035977;28;20022;-73
2020/12/03 00:39:29;;;;;;;46.15;18.48;;;;;;;-3.03;100.00;95586.13;1036069;28;20257;-71
2020/12/03 00:40:00;;;;;;;41.30;16.85;;;;;;;-2.98;100.00;95584.03;1035908;28;20105;-71
2020/12/03 00:40:30;;;;;;;43.42;18.50;;;;;;;-2.97;100.00;95584.91;1040110;28;20113;-73
2020/12/03 00:41:01;;;;;;;42.20;17.35;;;;;;;-2.98;100.00;95586.63;1027854;28;20027;-71
2020/12/03 00:41:32;;;;;;;43.60;19.15;;;;;;;-2.95;100.00;95581.25;1044264;28;20405;-73
2020/12/03 00:42:03;;;;;;;48.40;19.67;;;;;;;-2.99;100.00;95584.19;1044211;28;20024;-72
2020/12/03 00:42:34;;;;;;;43.78;18.70;;;;;;;-3.10;100.00;95587.47;1027836;28;20061;-71
2020/12/03 00:43:04;;;;;;;41.50;16.25;;;;;;;-3.17;100.00;95560.25;1036035;28;20018;-73
2020/12/03 00:43:35;;;;;;;40.55;16.88;;;;;;;-3.04;100.00;95574.91;1036015;28;20261;-72
2020/12/03 00:44:06;;;;;;;44.67;17.52;;;;;;;-2.96;100.00;95583.94;1036036;28;20034;-71
2020/12/03 00:44:37;;;;;;;39.17;16.10;;;;;;;-2.95;100.00;95586.44;1031889;28;20014;-73
2020/12/03 00:45:09;;;;;;;41.80;17.73;;;;;;;-2.93;100.00;95579.38;1035933;28;20386;-71
2020/12/03 00:45:40;;;;;;;39.20;15.57;;;;;;;-2.90;100.00;95586.16;1040129;28;20026;-71
2020/12/03 00:46:10;;;;;;;40.88;15.75;;;;;;;-2.90;100.00;95583.56;1036091;28;20336;-73
2020/12/03 00:46:41;;;;;;;37.25;16.65;;;;;;;-2.87;100.00;95578.97;1031746;28;20021;-72
2020/12/03 00:47:12;;;;;;;33.42;15.35;;;;;;;-3.21;100.00;95549.22;1031935;28;20018;-72
2020/12/03 00:47:43;;;;;;;35.47;15.30;;;;;;;-2.95;100.00;95580.44;1024085;29;20094;-72
2020/12/03 00:48:15;;;;;;;36.33;16.02;;;;;;;-2.91;100.00;95582.72;1040102;28;20393;-72
2020/12/03 00:48:46;;;;;;;35.22;15.88;;;;;;;-2.90;100.00;95586.97;1027792;28;20125;-73
2020/12/03 00:49:17;;;;;;;36.67;15.90;;;;;;;-2.91;100.00;95585.31;1027876;28;20646;-73
2020/12/03 00:49:48;;;;;;;35.65;16.15;;;;;;;-2.99;100.00;95582.41;1031987;28;20018;-73
2020/12/03 00:50:19;;;;;;;36.70;15.73;;;;;;;-2.94;100.00;95582.94;1036010;28;20292;-71
2020/12/03 00:50:49;;;;;;;35.45;15.85;;;;;;;-2.92;100.00;95582.81;1039802;28;20104;-73
2020/12/03 00:51:20;;;;;;;34.88;15.65;;;;;;;-2.87;100.00;95584.19;1031961;28;20518;-72
2020/12/03 00:51:51;;;;;;;35.88;16.42;;;;;;;-2.91;100.00;95581.88;1023832;28;20050;-73
2020/12/03 00:52:22;;;;;;;37.97;16.35;;;;;;;-2.91;100.00;95582.72;1031905;28;20391;-71
2020/12/03 00:52:53;;;;;;;38.85;17.27;;;;;;;-2.87;100.00;95578.97;1035870;28;20113;-73
2020/12/03 00:53:24;;;;;;;38.22;17.40;;;;;;;-2.86;100.00;95579.81;1031937;28;20022;-72
2020/12/03 00:53:55;;;;;;;39.50;17.45;;;;;;;-2.85;100.00;95581.47;1031885;28;20053;-74
2020/12/03 00:54:27;;;;;;;40.45;16.77;;;;;;;-2.84;100.00;95577.94;1032002;28;20493;-73
2020/12/03 00:54:58;;;;;;;38.75;17.00;;;;;;;-2.90;100.00;95562.78;1035697;28;20812;-73
2020/12/03 00:55:29;;;;;;;41.75;17.60;;;;;;;-2.82;100.00;95583.88;1031994;28;20256;-73
2020/12/03 00:56:00;;;;;;;36.97;15.82;;;;;;;-2.88;100.00;95572.09;1039976;28;20478;-72
2020/12/03 00:56:31;;;;;;;34.17;15.30;;;;;;;-2.88;100.00;95573.88;1040023;28;20029;-73
2020/12/03 00:57:02;;;;;;;36.90;16.73;;;;;;;-2.87;100.00;95576.38;1031818;28;20019;-72
2020/12/03 00:57:33;;;;;;;42.72;18.00;;;;;;;-2.80;100.00;95575.94;1032055;28;20022;-73
2020/12/03 00:58:07;;;;;;;40.83;17.77;;;;;;;-2.79;100.00;95569.84;1031769;28;20265;-72
2020/12/03 00:58:37;;;;;;;40.72;17.45;;;;;;;-2.78;100.00;95572.34;1027765;28;20546;-73
2020/12/03 00:59:08;;;;;;;41.85;17.17;;;;;;;-2.75;100.00;95573.88;1039964;28;20302;-72
2020/12/03 00:59:39;;;;;;;42.75;18.13;;;;;;;-2.72;100.00;95573.69;1036003;28;20091;-72
2020/12/03 01:00:13;;;;;;;39.10;17.17;;;;;;;-2.77;100.00;95574.00;1027808;28;20029;-73
2020/12/03 01:00:44;;;;;;;40.30;16.95;;;;;;;-2.75;100.00;95574.72;1048129;28;20243;-73
2020/12/03 01:01:16;;;;;;;39.22;16.55;;;;;;;-2.79;100.00;95569.84;1039875;28;20268;-74
2020/12/03 01:01:46;;;;;;;41.97;17.30;;;;;;;-2.83;100.00;95568.38;1035894;28;20322;-72
2020/12/03 01:02:17;;;;;;;39.50;16.83;;;;;;;-2.81;100.00;95567.34;1035990;28;20272;-72
2020/12/03 01:02:48;;;;;;;41.45;17.80;;;;;;;-2.85;100.00;95566.72;1039903;28;20096;-73
2020/12/03 01:03:19;;;;;;;39.22;15.98;;;;;;;-2.93;100.00;95569.00;1036012;28;20042;-73
2020/12/03 01:03:50;;;;;;;38.20;17.23;;;;;;;-2.91;100.00;95566.28;1036081;28;20257;-72
2020/12/03 01:04:21;;;;;;;38.72;16.17;;;;;;;-2.88;100.00;95563.50;1036007;28;20112;-73
2020/12/03 01:04:51;;;;;;;39.15;16.45;;;;;;;-2.86;100.00;95564.22;1035739;28;20026;-73
2020/12/03 01:05:22;;;;;;;40.67;17.50;;;;;;;-3.07;100.00;95530.13;1036177;28;20482;-72
2020/12/03 01:05:53;;;;;;;41.70;17.55;;;;;;;-2.87;100.00;95571.19;1027836;28;20069;-72
2020/12/03 01:06:24;;;;;;;41.50;17.13;;;;;;;-2.82;100.00;95575.22;1040189;28;20017;-73
2020/12/03 01:06:55;;;;;;;39.03;17.05;;;;;;;-2.80;100.00;95575.94;1035803;28;20418;-72
2020/12/03 01:07:26;;;;;;;38.08;17.48;;;;;;;-2.84;100.00;95577.94;1032021;28;20023;-73
2020/12/03 01:07:57;;;;;;;37.45;16.58;;;;;;;-2.83;100.00;95573.59;1032057;28;20018;-71
2020/12/03 01:08:27;;;;;;;38.35;16.67;;;;;;;-3.25;100.00;95521.81;1039985;28;20458;-74
2020/12/03 01:08:58;;;;;;;42.22;17.35;;;;;;;-2.96;100.00;95579.59;1035946;28;20100;-71
2020/12/03 01:09:29;;;;;;;41.78;17.25;;;;;;;-3.12;100.00;95550.38;1035904;28;20441;-73
2020/12/03 01:10:00;;;;;;;42.78;17.88;;;;;;;-2.99;100.00;95568.59;1031811;28;20049;-71
2020/12/03 01:10:32;;;;;;;43.55;18.17;;;;;;;-2.91;100.00;95569.75;1039908;28;20474;-73
2020/12/03 01:11:03;;;;;;;41.88;17.45;;;;;;;-2.87;100.00;95572.97;1027905;28;20546;-71
2020/12/03 01:11:34;;;;;;;40.75;16.77;;;;;;;-2.91;100.00;95568.88;1039972;28;20267;-73
2020/12/03 01:12:06;;;;;;;41.92;17.50;;;;;;;-2.87;100.00;95570.38;1035851;28;20276;-73
2020/12/03 01:12:37;;;;;;;41.33;17.45;;;;;;;-2.89;100.00;95569.59;1023761;28;20027;-72
2020/12/03 01:13:07;;;;;;;44.70;18.58;;;;;;;-2.85;100.00;95558.91;1040068;28;20725;-73
2020/12/03 01:13:38;;;;;;;39.80;16.75;;;;;;;-2.83;100.00;95561.41;1031849;28;20410;-71
2020/12/03 01:14:09;;;;;;;43.33;17.10;;;;;;;-2.79;100.00;95557.66;1035916;28;20038;-71
2020/12/03 01:14:40;;;;;;;41.08;17.58;;;;;;;-2.78;100.00;95555.91;1035929;28;20399;-72
2020/12/03 01:15:10;;;;;;;42.72;18.33;;;;;;;-2.87;100.00;95542.59;1027778;28;20050;-72
2020/12/03 01:15:41;;;;;;;45.00;18.15;;;;;;;-2.70;100.00;95570.06;1039819;28;20021;-71
2020/12/03 01:16:14;;;;;;;38.45;17.25;;;;;;;-2.72;100.00;95564.09;1023870;28;20447;-72
2020/12/03 01:16:46;;;;;;;40.83;17.27;;;;;;;-2.76;100.00;95556.63;1039750;28;20268;-72
2020/12/03 01:17:17;;;;;;;40.33;19.02;;;;;;;-2.73;100.00;95557.25;1023752;28;20329;-72
2020/12/03 01:17:48;;;;;;;38.25;15.80;;;;;;;-2.77;100.00;95562.75;1035827;28;20261;-72
2020/12/03 01:18:19;;;;;;;38.40;16.60;;;;;;;-2.83;100.00;95552.81;1035745;28;20264;-72
2020/12/03 01:18:50;;;;;;;40.13;17.60;;;;;;;-2.84;100.00;95557.13;1027733;28;20058;-72
2020/12/03 01:19:21;;;;;;;40.58;17.67;;;;;;;-2.78;100.00;95559.34;1039943;28;20410;-72
2020/12/03 01:19:51;;;;;;;42.03;17.65;;;;;;;-2.82;100.00;95562.25;1031879;28;20078;-72
2020/12/03 01:20:24;;;;;;;39.42;17.70;;;;;;;-2.93;100.00;95558.59;1036019;28;20084;-72
2020/12/03 01:20:55;;;;;;;36.63;15.65;;;;;;;-2.90;100.00;95560.16;1035828;28;20512;-72
2020/12/03 01:21:26;;;;;;;42.35;17.95;;;;;;;-2.91;100.00;95551.56;1027859;28;20286;-72
2020/12/03 01:21:57;;;;;;;45.28;17.63;;;;;;;-2.82;100.00;95557.03;1035835;28;20253;-71
2020/12/03 01:22:28;;;;;;;40.90;16.75;;;;;;;-2.80;100.00;95558.63;1031714;28;20033;-72
2020/12/03 01:22:59;;;;;;;44.35;17.23;;;;;;;-2.90;100.00;95547.19;1035753;28;20423;-72
2020/12/03 01:23:29;;;;;;;41.60;17.17;;;;;;;-2.88;100.00;95556.53;1031835;28;20065;-71
2020/12/03 01:24:00;;;;;;;41.53;17.70;;;;;;;-2.82;100.00;95554.44;1035941;28;20037;-72
2020/12/03 01:24:32;;;;;;;42.53;18.05;;;;;;;-2.81;100.00;95559.53;1039961;28;20057;-73
2020/12/03 01:25:05;;;;;;;42.97;19.23;;;;;;;-2.97;100.00;95535.53;1035822;28;20037;-71
2020/12/03 01:25:35;;;;;;;40.35;17.83;;;;;;;-2.81;100.00;95561.31;1031916;28;20249;-71
2020/12/03 01:26:06;;;;;;;39.80;17.25;;;;;;;-2.79;100.00;95555.06;1040093;28;20612;-73
2020/12/03 01:26:37;;;;;;;41.45;17.90;;;;;;;-2.85;100.00;95561.50;1035798;28;20022;-72
2020/12/03 01:27:09;;;;;;;40.33;18.05;;;;;;;-2.96;100.00;95548.44;1027802;28;20023;-71
2020/12/03 01:27:40;;;;;;;41.28;17.17;;;;;;;-2.87;100.00;95560.78;1035894;28;20057;-71
2020/12/03 01:28:11;;;;;;;44.20;18.30;;;;;;;-2.85;100.00;95565.88;1031981;28;20622;-71
2020/12/03 01:28:42;;;;;;;42.38;18.10;;;;;;;-2.88;100.00;95556.53;1035849;28;20018;-72
2020/12/03 01:29:14;;;;;;;39.60;17.50;;;;;;;-2.78;100.00;95561.94;1027914;28;20019;-73
2020/12/03 01:29:45;;;;;;;42.65;19.02;;;;;;;-2.71;100.00;95557.16;1040022;28;20836;-71
2020/12/03 01:30:16;;;;;;;42.20;19.33;;;;;;;-2.70;100.00;95564.84;1035987;28;20268;-71
2020/12/03 01:30:47;;;;;;;42.40;17.67;;;;;;;-2.68;100.00;95551.75;1031682;28;20026;-75
2020/12/03 01:31:18;;;;;;;43.70;17.83;;;;;;;-2.70;100.00;95551.00;1027834;28;20405;-71
2020/12/03 01:31:50;;;;;;;47.10;20.25;;;;;;;-2.68;100.00;95557.78;1039938;28;20399;-71
2020/12/03 01:32:21;;;;;;;46.30;18.38;;;;;;;-2.86;100.00;95548.63;1031825;28;20080;-72
2020/12/03 01:32:52;;;;;;;45.53;18.63;;;;;;;-2.87;100.00;95558.19;1035667;28;20348;-72
2020/12/03 01:33:23;;;;;;;48.10;19.17;;;;;;;-2.92;100.00;95544.69;1031840;28;20040;-72
2020/12/03 01:33:54;;;;;;;46.70;18.92;;;;;;;-2.76;100.00;95561.84;1035811;28;20018;-71
2020/12/03 01:34:25;;;;;;;43.28;20.25;;;;;;;-2.72;100.00;95558.09;1035857;28;20033;-73
2020/12/03 01:34:55;;;;;;;47.20;19.77;;;;;;;-2.75;100.00;95548.75;1039870;28;20358;-71
2020/12/03 01:35:26;;;;;;;44.17;18.90;;;;;;;-2.75;100.00;95553.94;1031836;28;20097;-73
2020/12/03 01:35:57;;;;;;;43.55;17.55;;;;;;;-2.79;100.00;95554.25;1035833;28;20026;-72
2020/12/03 01:36:28;;;;;;;46.22;18.45;;;;;;;-2.88;100.00;95538.34;1035861;28;20406;-72
2020/12/03 01:36:59;;;;;;;43.60;18.27;;;;;;;-2.73;100.00;95554.66;1031681;28;20505;-71
2020/12/03 01:37:30;;;;;;;42.70;19.00;;;;;;;-2.79;100.00;95543.84;1023940;29;20078;-72
2020/12/03 01:38:01;;;;;;;48.90;19.52;;;;;;;-2.75;100.00;95540.09;1027787;28;20769;-71
2020/12/03 01:38:31;;;;;;;45.97;20.48;;;;;;;-2.61;100.00;95552.16;1039876;28;20124;-72
2020/12/03 01:39:03;;;;;;;44.72;19.92;;;;;;;-2.58;100.00;95551.94;1035830;28;20416;-71
2020/12/03 01:39:34;;;;;;;43.03;18.67;;;;;;;-2.62;100.00;95553.94;1027802;28;20023;-74
2020/12/03 01:40:08;;;;;;;46.97;18.27;;;;;;;-2.66;100.00;95549.88;1031685;28;20258;-71
2020/12/03 01:40:40;;;;;;;44.88;18.67;;;;;;;-2.65;100.00;95546.31;1035723;28;20032;-72
2020/12/03 01:41:11;;;;;;;42.75;18.30;;;;;;;-2.63;100.00;95549.69;1031705;28;20310;-72
2020/12/03 01:41:41;;;;;;;45.75;19.75;;;;;;;-2.70;100.00;95545.81;1044074;28;20289;-71
2020/12/03 01:42:13;;;;;;;46.08;19.35;;;;;;;-2.68;100.00;95554.34;1027638;28;20025;-72
2020/12/03 01:42:44;;;;;;;46.30;18.40;;;;;;;-2.72;100.00;95550.28;1035775;28;20513;-73
2020/12/03 01:43:15;;;;;;;44.33;18.67;;;;;;;-2.77;100.00;95549.78;1039953;28;20260;-72
2020/12/03 01:43:46;;;;;;;45.97;17.90;;;;;;;-2.78;100.00;95550.72;1031803;28;20027;-71
2020/12/03 01:44:33;;;;;;;48.38;19.60;;;;;;;-2.74;100.00;95552.16;1027727;28;20113;-73
2020/12/03 01:45:34;;;;;;;42.72;17.17;;;;;;;-2.83;100.00;95547.59;1035821;28;20314;-71
2020/12/03 01:46:05;;;;;;;47.72;18.27;;;;;;;-2.79;100.00;95552.47;1035857;28;20253;-71
2020/12/03 01:46:37;;;;;;;38.83;16.30;;;;;;;-2.74;100.00;95546.97;1031836;28;20277;-72
2020/12/03 01:47:15;;;;;;;42.58;18.33;;;;;;;-2.89;100.00;95515.91;1039898;28;20356;-71
2020/12/03 01:47:46;;;;;;;46.25;18.45;;;;;;;-2.75;100.00;95546.16;1035742;28;20644;-71
2020/12/03 01:48:20;;;;;;;42.58;18.65;;;;;;;-2.87;100.00;95528.81;1035820;28;20356;-71
2020/12/03 01:48:52;;;;;;;43.05;18.35;;;;;;;-2.75;100.00;95540.94;1039771;28;20045;-72
2020/12/03 01:49:25;;;;;;;46.78;19.13;;;;;;;-2.76;100.00;95543.66;1039881;28;20335;-71
2020/12/03 01:49:56;;;;;;;42.63;17.52;;;;;;;-2.76;100.00;95536.69;1027777;28;20605;-72
2020/12/03 01:50:27;;;;;;;43.25;18.13;;;;;;;-2.76;100.00;95538.44;1027860;28;20357;-72
2020/12/03 01:50:59;;;;;;;44.22;18.08;;;;;;;-2.70;100.00;95538.88;1043873;28;20334;-71
2020/12/03 01:51:40;;;;;;;45.33;20.02;;;;;;;-2.73;100.00;95539.06;1035844;28;20502;-72
2020/12/03 01:52:11;;;;;;;47.03;19.10;;;;;;;-2.70;100.00;95533.66;1027737;28;20332;-71
2020/12/03 01:52:42;;;;;;;40.10;17.50;;;;;;;-2.74;100.00;95527.00;1031678;28;20318;-72
2020/12/03 01:53:13;;;;;;;42.58;18.45;;;;;;;-2.73;100.00;95530.47;1035820;28;20319;-71
2020/12/03 01:53:44;;;;;;;48.05;19.55;;;;;;;-2.75;100.00;95530.56;1035824;28;20109;-72
2020/12/03 01:54:17;;;;;;;43.92;19.15;;;;;;;-2.76;100.00;95523.69;1035803;28;20261;-71
2020/12/03 01:54:47;;;;;;;50.17;19.95;;;;;;;-2.70;100.00;95531.06;1035603;28;20368;-75
2020/12/03 01:55:19;;;;;;;41.95;18.27;;;;;;;-2.70;100.00;95528.47;1035845;28;20800;-71
2020/12/03 01:55:50;;;;;;;43.40;18.67;;;;;;;-2.72;100.00;95534.69;1031801;28;20268;-72
2020/12/03 01:56:25;;;;;;;44.45;17.80;;;;;;;-2.84;100.00;95528.56;1031656;28;20391;-71
2020/12/03 01:57:03;;;;;;;48.45;19.38;;;;;;;-2.77;100.00;95534.19;1035633;28;20014;-71
2020/12/03 01:57:49;;;;;;;46.05;18.83;;;;;;;-2.71;100.00;95529.41;1031705;28;20391;-71
2020/12/03 01:58:24;;;;;;;47.95;19.25;;;;;;;-2.70;100.00;95527.63;1031710;28;20336;-71
2020/12/03 01:58:55;;;;;;;42.08;17.73;;;;;;;-2.71;100.00;95524.19;1035773;28;20303;-71
2020/12/03 01:59:28;;;;;;;41.40;18.30;;;;;;;-2.71;100.00;95528.56;1039925;28;20601;-71
2020/12/03 02:00:03;;;;;;;48.90;20.13;;;;;;;-2.79;100.00;95529.09;1040003;28;20963;-71
2020/12/03 02:00:35;;;;;;;46.45;18.77;;;;;;;-2.85;100.00;95503.53;1043971;28;20664;-72
2020/12/03 02:01:08;;;;;;;46.38;18.95;;;;;;;-2.73;100.00;95528.69;1031608;28;20241;-71
2020/12/03 02:01:39;;;;;;;44.00;18.77;;;;;;;-2.86;100.00;95513.09;1039921;28;20558;-71
2020/12/03 02:02:12;;;;;;;43.25;18.55;;;;;;;-2.78;100.00;95524.75;1036444;28;20253;-71
2020/12/03 02:02:52;;;;;;;40.30;19.13;;;;;;;-2.70;100.00;95525.03;1040772;28;20120;-72
2020/12/03 02:03:22;;;;;;;47.78;19.08;;;;;;;-2.67;100.00;95519.63;1040766;28;20291;-72
2020/12/03 02:03:53;;;;;;;49.80;19.38;;;;;;;-2.62;100.00;95524.50;1036804;28;20665;-72
2020/12/03 02:04:24;;;;;;;43.30;18.77;;;;;;;-2.66;100.00;95519.53;1040943;28;20016;-72
2020/12/03 02:05:13;;;;;;;41.40;18.15;;;;;;;-2.68;100.00;95520.56;1036487;28;20382;-72
2020/12/03 02:05:44;;;;;;;42.90;19.05;;;;;;;-2.68;100.00;95525.78;1036717;28;20052;-71
2020/12/03 02:06:16;;;;;;;46.25;18.65;;;;;;;-2.72;100.00;95516.50;1028514;28;20396;-72
2020/12/03 02:07:05;;;;;;;47.72;19.52;;;;;;;-2.78;100.00;95522.16;1036586;28;20022;-72
2020/12/03 02:07:36;;;;;;;49.30;17.92;;;;;;;-2.75;100.00;95525.34;1036696;28;20245;-72
2020/12/03 02:08:06;;;;;;;47.42;19.92;;;;;;;-2.82;100.00;95512.88;1040685;28;20341;-72
2020/12/03 02:08:37;;;;;;;46.28;18.90;;;;;;;-2.87;100.00;95511.44;1028627;28;20043;-75
2020/12/03 02:09:09;;;;;;;46.38;20.23;;;;;;;-2.78;100.00;95522.16;1032501;28;20057;-73
2020/12/03 02:09:40;;;;;;;45.05;18.88;;;;;;;-2.81;100.00;95517.97;1036571;28;20493;-72
2020/12/03 02:10:11;;;;;;;44.65;19.30;;;;;;;-2.97;100.00;95500.00;1032574;28;20257;-71
2020/12/03 02:10:42;;;;;;;49.47;20.35;;;;;;;-2.86;100.00;95512.25;1040606;28;20017;-74
2020/12/03 02:11:15;;;;;;;47.25;19.38;;;;;;;-2.93;100.00;95506.63;1032179;28;20749;-72
2020/12/03 02:11:46;;;;;;;50.13;20.63;;;;;;;-2.92;100.00;95508.31;1036606;28;20056;-71
2020/12/03 02:12:16;;;;;;;49.85;19.95;;;;;;;-2.84;100.00;95512.97;1036592;28;20249;-72
2020/12/03 02:12:48;;;;;;;49.85;21.08;;;;;;;-2.93;100.00;95511.00;1032485;28;20234;-73
2020/12/03 02:13:19;;;;;;;51.58;19.73;;;;;;;-3.00;100.00;95489.81;1032655;28;20019;-72
2020/12/03 02:13:53;;;;;;;46.10;18.88;;;;;;;-2.96;100.00;95496.47;1028629;28;20258;-72
2020/12/03 02:14:24;;;;;;;47.40;19.30;;;;;;;-2.91;100.00;95504.78;1040690;28;20260;-71
2020/12/03 02:14:55;;;;;;;50.42;20.75;;;;;;;-2.94;100.00;95507.59;1028491;28;20319;-71
2020/12/03 02:15:26;;;;;;;50.72;20.50;;;;;;;-2.83;100.00;95503.44;1040725;28;20307;-71
2020/12/03 02:15:57;;;;;;;51.35;20.70;;;;;;;-2.80;100.00;95500.59;1028458;28;20254;-71
2020/12/03 02:16:32;;;;;;;47.25;21.13;;;;;;;-2.79;100.00;95505.69;1040547;28;20037;-73
2020/12/03 02:17:03;;;;;;;46.20;19.30;;;;;;;-2.82;100.00;95502.47;1040700;28;20025;-72
2020/12/03 02:17:34;;;;;;;48.33;19.92;;;;;;;-2.85;100.00;95498.34;1048897;28;20258;-71
2020/12/03 02:18:05;;;;;;;43.45;18.58;;;;;;;-2.81;100.00;95499.78;1040778;28;20453;-71
2020/12/03 02:18:36;;;;;;;48.58;19.52;;;;;;;-2.93;100.00;95485.88;1028333;28;20345;-72
2020/12/03 02:19:19;;;;;;;47.70;19.08;;;;;;;-2.89;100.00;95500.31;1036455;28;20917;-71
2020/12/03 02:19:54;;;;;;;46.92;18.45;;;;;;;-2.91;100.00;95490.97;1032611;28;20056;-72
2020/12/03 02:20:25;;;;;;;48.60;19.02;;;;;;;-2.90;100.00;95503.03;1036541;28;20344;-72
2020/12/03 02:20:55;;;;;;;50.00;20.52;;;;;;;-2.88;100.00;95490.75;1036478;28;20284;-72
2020/12/03 02:21:26;;;;;;;45.13;18.58;;;;;;;-2.82;100.00;95487.75;1028627;28;20015;-72
2020/12/03 02:22:02;;;;;;;45.30;20.92;;;;;;;-2.83;100.00;95493.88;1036781;28;20056;-72
2020/12/03 02:22:32;;;;;;;42.10;18.95;;;;;;;-2.79;100.00;95491.88;1028551;28;20555;-72
2020/12/03 02:23:12;;;;;;;48.15;20.40;;;;;;;-2.86;100.00;95489.72;1028761;28;20285;-71
2020/12/03 02:23:43;;;;;;;47.45;18.85;;;;;;;-2.88;100.00;95491.56;1032665;28;20025;-72
2020/12/03 02:24:14;;;;;;;44.92;18.42;;;;;;;-2.79;100.00;95492.72;1044972;28;20021;-71
2020/12/03 02:24:45;;;;;;;52.22;20.20;;;;;;;-2.83;100.00;95490.44;1028568;28;20618;-72
2020/12/03 02:25:16;;;;;;;45.03;19.77;;;;;;;-2.89;100.00;95495.13;1028780;28;20031;-72
2020/12/03 02:25:47;;;;;;;47.78;20.15;;;;;;;-2.82;100.00;95497.28;1036919;28;20101;-72
2020/12/03 02:26:18;;;;;;;44.08;19.52;;;;;;;-2.83;100.00;95498.25;1032796;28;20019;-72